4XCDN LLHZ-LLHZ

Flight info

Callsign 4XCDN
Flight time 0h 10m
Altitude 800
Route ROUNDERS
Aircraft C152/L-V/N

Departure

Time 2026-04-25 11:48
Airport Herzliya Airport (LLHZ)

Arrival

Time 2026-04-25 11:58
Airport Herzliya Airport (LLHZ)
Time Latitude Longitude Altitude Speed Heading
2026-04-25 11:37 32.18061 34.83169 98 ft 0 kts 20°
2026-04-25 11:41 32.18063 34.83170 98 ft 0 kts 19°
2026-04-25 11:42 32.18074 34.83185 100 ft 2 kts 112°
2026-04-25 11:42 32.18058 34.83239 100 ft 11 kts 110°
2026-04-25 11:42 32.18031 34.83332 102 ft 12 kts 110°
2026-04-25 11:42 32.18002 34.83432 104 ft 15 kts 109°
2026-04-25 11:43 32.17968 34.83545 107 ft 14 kts 108°
2026-04-25 11:43 32.17940 34.83640 111 ft 10 kts 109°
2026-04-25 11:43 32.17925 34.83694 114 ft 4 kts 108°
2026-04-25 11:43 32.17922 34.83705 114 ft 0 kts 109°
2026-04-25 11:44 32.17919 34.83716 115 ft 5 kts 111°
2026-04-25 11:44 32.17904 34.83765 117 ft 4 kts 110°
2026-04-25 11:44 32.17893 34.83802 119 ft 7 kts 109°
2026-04-25 11:44 32.17880 34.83845 119 ft 3 kts 99°
2026-04-25 11:45 32.17880 34.83847 119 ft 0 kts 90°
2026-04-25 11:46 32.17880 34.83851 120 ft 4 kts 76°
2026-04-25 11:46 32.17917 34.83838 121 ft 21 kts 289°
2026-04-25 11:47 32.18023 34.83473 158 ft 62 kts 289°
2026-04-25 11:47 32.18178 34.82951 282 ft 72 kts 291°
2026-04-25 11:47 32.18574 34.82752 436 ft 77 kts 13°
2026-04-25 11:47 32.19077 34.82996 619 ft 77 kts 20°
2026-04-25 11:48 32.19371 34.83542 774 ft 94 kts 86°
2026-04-25 11:48 32.19153 34.84284 838 ft 95 kts 116°
2026-04-25 11:48 32.18840 34.84999 739 ft 97 kts 122°
2026-04-25 11:48 32.18341 34.85432 614 ft 88 kts 186°
2026-04-25 11:49 32.17805 34.85236 546 ft 75 kts 222°
2026-04-25 11:49 32.17601 34.84813 451 ft 53 kts 276°
2026-04-25 11:49 32.17758 34.84421 325 ft 52 kts 298°
2026-04-25 11:49 32.17857 34.84036 169 ft 53 kts 289°
2026-04-25 11:50 32.17972 34.83648 121 ft 54 kts 291°
2026-04-25 11:50 32.18111 34.83180 280 ft 62 kts 289°
2026-04-25 11:50 32.18320 34.82736 436 ft 66 kts 330°
2026-04-25 11:50 32.18811 34.82770 542 ft 73 kts
2026-04-25 11:51 32.19272 34.83028 713 ft 84 kts 41°
2026-04-25 11:51 32.19376 34.83759 824 ft 101 kts 103°
2026-04-25 11:51 32.19164 34.84557 928 ft 103 kts 110°
2026-04-25 11:51 32.18890 34.85275 813 ft 92 kts 133°
2026-04-25 11:52 32.18324 34.85419 606 ft 84 kts 201°
2026-04-25 11:52 32.17805 34.85201 471 ft 65 kts 223°
2026-04-25 11:52 32.17639 34.84790 353 ft 55 kts 271°
2026-04-25 11:52 32.17760 34.84360 278 ft 57 kts 293°
2026-04-25 11:53 32.17888 34.83925 145 ft 54 kts 291°
2026-04-25 11:53 32.18006 34.83529 139 ft 62 kts 289°
2026-04-25 11:53 32.18157 34.83022 315 ft 67 kts 289°
2026-04-25 11:53 32.18527 34.82714 422 ft 75 kts
2026-04-25 11:54 32.19077 34.82853 557 ft 81 kts 14°
2026-04-25 11:54 32.19394 34.83407 742 ft 96 kts 77°
2026-04-25 11:54 32.18860 34.84998 785 ft 107 kts 119°
2026-04-25 11:55 32.18312 34.85358 691 ft 91 kts 191°
2026-04-25 11:55 32.17769 34.85127 552 ft 68 kts 235°
2026-04-25 11:55 32.17639 34.84661 430 ft 61 kts 284°
2026-04-25 11:55 32.17818 34.84176 231 ft 64 kts 289°
2026-04-25 11:56 32.17954 34.83710 115 ft 54 kts 289°
2026-04-25 11:56 32.18104 34.83220 181 ft 69 kts 291°
2026-04-25 11:56 32.18325 34.82722 346 ft 74 kts 324°
2026-04-25 11:56 32.18831 34.82767 474 ft 79 kts
2026-04-25 11:57 32.19337 34.83066 638 ft 89 kts 41°
2026-04-25 11:57 32.19351 34.83798 796 ft 103 kts 111°
2026-04-25 11:57 32.19011 34.84585 839 ft 111 kts 123°
2026-04-25 11:57 32.18552 34.85313 722 ft 107 kts 143°
2026-04-25 11:58 32.17886 34.85325 648 ft 102 kts 216°
2026-04-25 11:58 32.17606 34.84760 523 ft 84 kts 284°
2026-04-25 11:58 32.17820 34.84179 233 ft 62 kts 289°
2026-04-25 11:58 32.17939 34.83766 119 ft 44 kts 289°
2026-04-25 11:59 32.18020 34.83505 104 ft 20 kts 289°
2026-04-25 11:59 32.18048 34.83396 100 ft 21 kts 286°
2026-04-25 11:59 32.18046 34.83333 101 ft 2 kts 204°
2026-04-25 12:00 32.18078 34.83178 97 ft 10 kts 289°
2026-04-25 12:00 32.18100 34.83102 96 ft 9 kts 288°
2026-04-25 12:00 32.18171 34.82913 92 ft 15 kts 287°
2026-04-25 12:01 32.18189 34.82843 92 ft 7 kts 298°
2026-04-25 12:01 32.18214 34.82818 93 ft 5 kts 22°
2026-04-25 12:01 32.18216 34.82795 93 ft 8 kts 202°
2026-04-25 12:01 32.18202 34.82798 93 ft 0 kts 101°